Pagrindinis puslapis
METAR-TAF:

METAR-TAF

Oro uostai :

Langkavis, Malaizija

platuma: 06-20N, ilguma: 099-44E, Aukštis: 8 m

Dabartinis oras

Ataskaita buvo paskelbta 1 valandą ir 0 minutes, ne 01:00 UTC
Vėjas 2 kt nuo kintamojo kryptimis
Temperatūra 28°C
Drėgmė 89%
Slėgis 1011 hPa
Matomumas 10 km arba daugiau
Išsisklaidę debesys ne aukštis 2200 ft

METAR: WMKL 080100Z VRB02KT 9999 SCT022 28/26 Q1011

Laikas: 10:00 (02:00 UTC)

Prognozė

Ataskaita buvo paskelbta 3 valandos ir 0 minutes, ne 23:00 UTC
Prognozė galioja nuo 08 metu 00 UTC su 09 metu 00 UTC
Vėjas 3 kt nuo kintamojo kryptimis
Matomumas 10 km arba daugiau
Mažai debesys ne aukštis 2000 ft
Tapsmas
nuo 08 metu 04 UTC su 08 metu 06 UTC
Vėjas 6 kt iš Vakarų/Pietvakarių
Tapsmas
nuo 08 metu 10 UTC su 08 metu 12 UTC
Vėjas 3 kt nuo kintamojo kryptimis
Mažai debesys ne aukštis 2600 ft

TAF: WMKL 072300Z 0800/0900 VRB03KT 9999 FEW020 BECMG 0804/0806 25006KT BECMG 0810/0812 VRB03KT FEW026

Orai ataskaitas ir orų prognozės (METAR, TAF).

turimą stotys yra geltonos ir raudonos taškus žemėlapyje.

Perkelti pele per norėdami pamatyti stoties vardą.

Tada spustelėkite, norėdami matyti oro stebėjimo ir prognozės.

Norėdami pakeisti žemėlapį: spustelėkite ant žalios mygtukų su juodo kryžiaus žemyn,; žalią mygtuką su brūkšneliu, jei norite nutolinti; arba žalių rodyklių gretimoms žemėlapius.


METAR-TAF: